Time;durP1;ratioP1;P1;durP2;ratioP2;P2;SDS_P1;SDS_P2;PMS_P1;PMS_P2;Temp;Humidity;BMP_temperature;BMP_pressure;BME280_temperature;BME280_humidity;BME280_pressure;Samples;Min_cycle;Max_cycle;Signal;HPM_P1;HPM_P2
2024/01/31 00:00:08;;;;;;;;;;;;;;;;;;;;;
2024/01/31 00:02:37;;;;;;;23.02;13.80;;;9.00;99.90;;;7.67;98.32;102134.31;4940632;29;20031;-84
2024/01/31 00:05:06;;;;;;;22.63;13.73;;;;;;;7.66;98.39;102143.03;4941130;28;20034;-85
2024/01/31 00:07:55;;;;;;;24.17;14.48;;;;;;;7.66;98.31;102140.41;4987507;28;20524;-84
2024/01/31 00:10:24;;;;;;;21.85;13.93;;;;;;;7.65;98.41;102143.94;4958877;28;20047;-86
2024/01/31 00:12:50;;;;;;;25.77;13.02;;;;;;;7.66;98.56;102153.53;4943826;29;20434;-85
2024/01/31 00:15:55;;;;;;;28.88;14.05;;;;;;;7.67;98.99;102142.16;4962409;28;20038;-85
2024/01/31 00:18:27;;;;;;;24.55;13.32;;;9.00;99.90;;;7.67;99.15;102144.78;4945180;28;20094;-85
2024/01/31 00:21:21;;;;;;;24.85;12.65;;;9.00;99.90;;;7.68;99.58;102141.25;4944481;29;20130;-85
2024/01/31 00:23:47;;;;;;;25.83;12.32;;;9.00;99.90;;;7.68;99.86;102133.41;4946160;28;20043;-84
2024/01/31 00:26:24;;;;;;;18.15;12.05;;;9.00;99.90;;;7.69;99.83;102140.38;5032994;23;20049;-82
2024/01/31 00:28:50;;;;;;;21.42;11.27;;;9.00;99.90;;;7.69;99.91;102132.50;5032372;28;20037;-82
2024/01/31 00:31:16;;;;;;;18.60;10.38;;;9.00;99.90;;;7.70;99.67;102137.72;5047455;28;20017;-81
2024/01/31 00:33:46;;;;;;;23.17;11.48;;;9.00;99.90;;;7.71;100.00;102123.75;5023999;28;20112;-81
2024/01/31 00:36:13;;;;;;;26.30;11.27;;;9.00;99.90;;;7.73;100.00;102132.47;5005906;28;20492;-82
2024/01/31 00:38:39;;;;;;;15.80;10.40;;;9.00;99.90;;;7.73;100.00;102134.19;5012344;28;20095;-81
2024/01/31 00:41:06;;;;;;;16.67;9.63;;;9.10;99.90;;;7.76;99.77;102126.31;4994123;28;20564;-81
2024/01/31 00:43:34;;;;;;;15.68;9.07;;;9.00;99.90;;;7.75;99.77;102135.94;5013637;28;20032;-81
2024/01/31 00:46:03;;;;;;;15.65;8.95;;;9.00;99.90;;;7.75;99.83;102138.56;5053063;22;20124;-82
2024/01/31 00:48:32;;;;;;;15.93;8.15;;;9.00;99.90;;;7.73;99.71;102132.47;5053329;28;20028;-81
2024/01/31 00:50:58;;;;;;;17.38;9.10;;;9.10;99.90;;;7.73;99.82;102137.72;5063947;28;20097;-82
2024/01/31 00:53:30;;;;;;;17.92;9.48;;;9.00;99.90;;;7.75;99.73;102127.19;5055109;28;20487;-81
2024/01/31 00:55:56;;;;;;;13.95;9.02;;;9.00;99.90;;;7.77;99.91;102128.91;5055566;28;20044;-81
2024/01/31 00:58:22;;;;;;;13.75;8.80;;;9.10;99.90;;;7.77;99.66;102126.28;5070676;28;20125;-81
2024/01/31 01:00:47;;;;;;;15.85;8.68;;;9.10;99.90;;;7.78;99.70;102125.41;5054272;28;20119;-81
2024/01/31 01:03:13;;;;;;;17.33;8.90;;;9.10;99.90;;;7.77;99.32;102123.66;5072162;28;20116;-81
2024/01/31 01:05:39;;;;;;;16.27;8.90;;;9.10;99.90;;;7.75;99.43;102121.94;5053861;28;20041;-81
2024/01/31 01:08:13;;;;;;;16.25;8.93;;;9.00;99.90;;;7.75;99.09;102127.19;5062505;28;20445;-81
2024/01/31 01:10:39;;;;;;;14.63;8.35;;;9.00;99.90;;;7.70;99.45;102119.38;5071370;28;20052;-81
2024/01/31 01:13:04;;;;;;;12.48;7.72;;;9.00;99.90;;;7.70;99.23;102118.53;5051769;28;20031;-80
2024/01/31 01:15:30;;;;;;;12.85;7.57;;;9.00;99.90;;;7.70;99.07;102118.53;5068375;28;20095;-81
2024/01/31 01:18:02;;;;;;;11.95;6.40;;;9.00;99.90;;;7.66;99.35;102117.69;5070521;28;20043;-81
2024/01/31 01:20:28;;;;;;;12.30;6.03;;;9.00;99.90;;;7.68;99.13;102125.53;5070199;28;20036;-80
2024/01/31 01:22:55;;;;;;;9.95;5.82;;;9.00;99.90;;;7.68;98.84;102130.78;5072765;28;20494;-81
2024/01/31 01:25:21;;;;;;;10.93;5.30;;;9.00;99.90;;;7.65;99.41;102115.09;5052042;28;20021;-81
2024/01/31 01:27:50;;;;;;;9.30;5.18;;;9.00;99.90;;;7.67;99.08;102111.56;5070550;28;20032;-81
2024/01/31 01:30:21;;;;;;;5.88;4.50;;;9.00;99.90;;;7.62;99.20;102123.84;5054407;28;20028;-81
2024/01/31 01:32:47;;;;;;;6.20;4.10;;;8.90;99.90;;;7.56;99.21;102121.31;5054177;28;20686;-81
2024/01/31 01:35:13;;;;;;;7.97;4.90;;;8.90;99.90;;;7.53;100.00;102119.56;5068047;28;20040;-80
2024/01/31 01:37:49;;;;;;;7.22;4.53;;;8.90;99.90;;;7.56;100.00;102122.19;5054063;28;20036;-81
2024/01/31 01:40:16;;;;;;;7.85;4.45;;;8.90;99.90;;;7.58;100.00;102123.03;5060530;28;20032;-81
2024/01/31 01:42:42;;;;;;;5.65;4.25;;;8.90;99.90;;;7.52;100.00;102128.34;5069900;28;20032;-81
2024/01/31 01:45:14;;;;;;;9.55;4.47;;;8.90;99.90;;;7.52;100.00;102124.84;5070492;28;20036;-80
2024/01/31 01:47:50;;;;;;;7.93;4.40;;;8.90;99.90;;;7.51;100.00;102123.97;5068460;28;20028;-80
2024/01/31 01:50:20;;;;;;;8.15;4.15;;;8.90;99.90;;;7.52;100.00;102124.84;5054786;28;20050;-81
2024/01/31 01:52:46;;;;;;;7.30;4.30;;;8.80;99.90;;;7.50;100.00;102124.88;5068693;28;20035;-80
2024/01/31 01:55:13;;;;;;;6.45;4.25;;;8.80;99.90;;;7.45;100.00;102128.41;5052537;28;20442;-81
2024/01/31 01:57:39;;;;;;;7.05;3.63;;;8.80;99.90;;;7.40;100.00;102121.47;5053134;28;20795;-80
2024/01/31 02:00:12;;;;;;;6.95;3.97;;;8.80;99.90;;;7.39;100.00;102117.13;5053602;28;20074;-81
2024/01/31 02:02:38;;;;;;;6.20;3.42;;;8.70;99.90;;;7.36;100.00;102117.19;5052159;28;20036;-81
2024/01/31 02:05:07;;;;;;;4.68;3.53;;;8.70;99.90;;;7.34;100.00;102110.19;5073102;28;20022;-81
2024/01/31 02:07:55;;;;;;;7.60;3.38;;;8.70;99.90;;;7.34;100.00;102118.06;5052489;28;20028;-81
2024/01/31 02:10:22;;;;;;;5.63;3.20;;;8.60;99.90;;;7.30;100.00;102117.25;5068624;28;20109;-80
2024/01/31 02:12:48;;;;;;;4.93;2.95;;;8.60;99.90;;;7.28;100.00;102125.97;5069840;28;21101;-80
2024/01/31 02:15:13;;;;;;;5.80;3.38;;;8.60;99.90;;;7.24;100.00;102122.53;5076420;28;20069;-81
2024/01/31 02:17:39;;;;;;;5.68;3.67;;;8.60;99.90;;;7.25;100.00;102121.63;5053098;28;20028;-81
2024/01/31 02:20:08;;;;;;;5.22;4.10;;;8.60;99.90;;;7.25;100.00;102131.25;5052314;28;20028;-81
2024/01/31 02:22:34;;;;;;;6.15;3.65;;;8.60;99.90;;;7.19;100.00;102125.22;5070564;28;20056;-81
2024/01/31 02:25:01;;;;;;;5.63;3.53;;;8.50;99.90;;;7.18;100.00;102133.06;5053715;28;20066;-81
2024/01/31 02:27:27;;;;;;;4.90;3.70;;;8.50;99.90;;;7.12;100.00;102131.38;5059431;28;20033;-81
2024/01/31 02:29:53;;;;;;;5.03;3.63;;;8.50;99.90;;;7.12;100.00;102131.38;5058958;28;20127;-81
2024/01/31 02:32:18;;;;;;;6.05;3.17;;;8.50;99.90;;;7.12;100.00;102128.75;5067983;28;20028;-81
2024/01/31 02:34:49;;;;;;;5.03;3.15;;;8.50;99.90;;;7.11;100.00;102134.88;5070311;28;20815;-81
2024/01/31 02:37:15;;;;;;;4.20;3.13;;;8.50;99.90;;;7.09;100.00;102133.16;5068241;28;20021;-81
2024/01/31 02:39:40;;;;;;;7.53;3.10;;;8.40;99.90;;;6.99;100.00;102132.38;5069595;28;20106;-81
2024/01/31 02:42:06;;;;;;;5.97;3.55;;;8.40;99.90;;;6.98;100.00;102138.50;5051875;28;20446;-81
2024/01/31 02:44:32;;;;;;;6.65;3.63;;;8.40;99.90;;;6.97;100.00;102136.75;5070062;28;20116;-81
2024/01/31 02:46:58;;;;;;;4.85;3.60;;;8.30;99.90;;;6.95;100.00;102138.53;5058215;28;20041;-80
2024/01/31 02:49:27;;;;;;;5.90;3.78;;;8.30;99.90;;;6.92;100.00;102141.19;5068043;28;20621;-81
2024/01/31 02:51:55;;;;;;;6.18;3.45;;;8.30;99.90;;;6.92;100.00;102135.94;5070210;28;20064;-81
2024/01/31 02:54:21;;;;;;;6.10;3.40;;;8.30;99.90;;;6.87;100.00;102137.72;5069036;28;20119;-82
2024/01/31 02:56:47;;;;;;;4.30;2.08;;;8.20;99.90;;;6.82;100.00;102147.38;5068100;28;20608;-81
2024/01/31 02:59:13;;;;;;;5.80;2.88;;;8.20;99.90;;;6.74;100.00;102158.78;5071315;28;20082;-81
2024/01/31 03:01:49;;;;;;;4.97;3.15;;;8.20;99.90;;;6.54;100.00;102145.84;5067958;28;20074;-81
2024/01/31 03:04:15;;;;;;;6.13;2.78;;;8.10;99.90;;;6.61;100.00;102154.53;5051351;28;20031;-80
2024/01/31 03:06:41;;;;;;;3.50;2.33;;;8.10;99.90;;;6.67;100.00;102162.31;5052216;28;20028;-82
2024/01/31 03:09:07;;;;;;;4.25;2.20;;;8.10;99.90;;;6.64;100.00;102164.97;5052024;28;20063;-81
2024/01/31 03:11:42;;;;;;;4.15;1.95;;;8.00;99.90;;;6.45;100.00;102165.97;5049997;28;20440;-81
2024/01/31 03:14:08;;;;;;;4.00;1.50;;;8.00;99.90;;;6.47;100.00;102161.59;5052212;28;20028;-79
2024/01/31 03:16:34;;;;;;;4.72;1.70;;;7.90;99.90;;;6.45;100.00;102169.44;5051573;28;20028;-81
2024/01/31 03:18:59;;;;;;;2.50;1.60;;;7.90;99.90;;;6.46;99.95;102170.34;5052507;28;20025;-80
2024/01/31 03:21:27;;;;;;;4.65;1.83;;;7.90;99.90;;;6.42;99.64;102173.84;5066920;28;20115;-81
2024/01/31 03:23:56;;;;;;;2.88;1.52;;;7.80;99.90;;;6.28;99.89;102179.13;5069115;28;20037;-81
2024/01/31 03:26:21;;;;;;;5.03;1.85;;;7.80;99.90;;;6.28;100.00;102190.47;5053403;28;20094;-80
2024/01/31 03:28:47;;;;;;;3.35;1.48;;;7.80;99.90;;;6.22;99.93;102185.28;5067056;28;20032;-80
2024/01/31 03:31:13;;;;;;;2.40;1.30;;;7.70;99.90;;;6.20;100.00;102194.88;5068166;28;20032;-80
2024/01/31 03:33:39;;;;;;;1.40;1.15;;;7.70;99.90;;;6.26;99.94;102189.59;5068715;28;20453;-80
2024/01/31 03:36:14;;;;;;;4.20;1.70;;;7.70;99.90;;;6.24;99.92;102198.34;5069218;28;20099;-81
2024/01/31 03:38:40;;;;;;;1.38;1.00;;;7.60;99.90;;;6.03;100.00;102200.19;5067247;28;20028;-81
2024/01/31 03:41:22;;;;;;;5.38;1.05;;;7.50;99.90;;;5.91;100.00;102202.81;5068534;28;20053;-81
2024/01/31 03:43:47;;;;;;;6.47;1.70;;;7.50;99.90;;;5.93;100.00;102201.94;5067898;28;20028;-81
2024/01/31 03:46:21;;;;;;;2.78;1.40;;;7.50;99.90;;;5.96;100.00;102206.31;5059251;28;20574;-81
2024/01/31 03:48:47;;;;;;;3.90;1.00;;;7.40;99.90;;;5.92;100.00;102200.19;5049572;28;20028;-80
2024/01/31 03:51:24;;;;;;;3.70;1.20;;;7.40;99.90;;;5.85;100.00;102198.50;5052888;28;20032;-81
2024/01/31 03:53:50;;;;;;;;;;;7.40;99.90;;;5.82;100.00;102214.16;5053688;28;20021;-80
2024/01/31 03:56:17;;;;;;;6.30;1.70;;;7.30;99.90;;;5.84;100.00;102212.41;5071702;28;19916;-81
2024/01/31 03:58:43;;;;;;;3.35;1.33;;;7.30;99.90;;;5.85;100.00;102216.78;5071281;28;20043;-81
2024/01/31 04:01:17;;;;;;;3.33;1.30;;;7.20;99.90;;;5.82;100.00;102206.31;5073137;28;20024;-80
2024/01/31 04:03:45;;;;;;;2.95;1.10;;;7.20;99.90;;;5.79;100.00;102213.28;5072012;28;20025;-81
2024/01/31 04:06:11;;;;;;;5.72;1.30;;;7.10;99.90;;;5.65;100.00;102206.38;5070582;28;20657;-81
2024/01/31 04:08:42;;;;;;;3.38;1.15;;;7.10;99.90;;;5.64;100.00;102215.09;5053358;28;20037;-81
2024/01/31 04:11:08;;;;;;;2.78;1.00;;;7.10;99.90;;;5.66;100.00;102213.34;5055320;28;20036;-81
2024/01/31 04:13:34;;;;;;;3.53;1.02;;;7.00;99.90;;;5.62;100.00;102215.97;5064038;28;20035;-80
2024/01/31 04:16:00;;;;;;;5.70;1.02;;;7.00;99.90;;;5.56;100.00;102209.00;5054443;28;20050;-81
2024/01/31 04:18:25;;;;;;;3.42;1.15;;;7.00;99.90;;;5.52;100.00;102226.44;5071746;28;20426;-81
2024/01/31 04:20:51;;;;;;;1.75;1.20;;;7.00;99.90;;;5.54;100.00;102216.84;5054329;28;20492;-81
2024/01/31 04:23:26;;;;;;;1.63;0.85;;;7.00;99.90;;;5.42;100.00;102219.50;5072861;28;20447;-80
2024/01/31 04:25:54;;;;;;;6.60;1.02;;;6.90;99.90;;;5.34;100.00;102216.03;5067137;28;20032;-81
2024/01/31 04:28:25;;;;;;;1.42;1.00;;;6.90;99.90;;;5.34;100.00;102211.66;5071521;28;20025;-81
2024/01/31 04:30:54;;;;;;;3.67;1.02;;;6.80;99.90;;;5.22;100.00;102227.31;5071375;28;20032;-82
2024/01/31 04:33:22;;;;;;;1.38;0.90;;;6.80;99.90;;;5.16;100.00;102229.06;5068561;28;20035;-80
2024/01/31 04:35:57;;;;;;;7.10;1.30;;;6.80;99.90;;;5.22;100.00;102229.06;5073096;28;20499;-80
2024/01/31 04:38:22;;;;;;;4.95;0.95;;;6.70;99.90;;;5.16;100.00;102232.56;5069047;28;20081;-81
2024/01/31 04:40:48;;;;;;;2.97;0.93;;;6.80;99.90;;;5.12;100.00;102225.63;5071598;28;20088;-81
2024/01/31 04:43:17;;;;;;;2.85;1.15;;;6.70;99.90;;;5.25;100.00;102226.47;5052152;28;20028;-81
2024/01/31 04:45:50;;;;;;;2.78;1.00;;;6.70;99.90;;;5.19;100.00;102223.88;5055075;28;20040;-80
2024/01/31 04:48:16;;;;;;;2.25;1.30;;;6.70;99.90;;;5.24;100.00;102232.56;5071268;28;20501;-80
2024/01/31 04:50:42;;;;;;;5.05;1.30;;;6.70;99.90;;;5.21;100.00;102235.19;5072867;28;20036;-81
2024/01/31 04:53:13;;;;;;;3.22;1.30;;;6.70;99.90;;;5.22;100.00;102237.78;5053493;28;20056;-81
2024/01/31 04:55:44;;;;;;;5.57;1.98;;;6.70;99.90;;;5.25;100.00;102237.78;5045590;28;20476;-81
2024/01/31 04:58:12;;;;;;;4.03;1.63;;;6.70;99.90;;;5.27;100.00;102246.50;5053791;28;20052;-80
2024/01/31 05:00:45;;;;;;;3.33;1.70;;;6.70;99.90;;;5.26;100.00;102251.72;5054065;28;20116;-81
2024/01/31 05:03:11;;;;;;;3.63;1.80;;;6.70;99.90;;;5.32;100.00;102239.53;5069386;28;20561;-81
2024/01/31 05:05:37;;;;;;;3.45;1.50;;;6.70;99.90;;;5.33;100.00;102240.38;5069143;28;20111;-80
2024/01/31 05:08:03;;;;;;;6.93;1.88;;;6.70;99.90;;;5.29;100.00;102243.88;5050411;28;20035;-81
2024/01/31 05:10:34;;;;;;;3.00;1.45;;;6.70;99.90;;;5.28;100.00;102253.44;5052379;28;20017;-81
2024/01/31 05:13:01;;;;;;;3.03;1.55;;;6.70;99.90;;;5.33;100.00;102256.06;5071460;28;20472;-81
2024/01/31 05:15:27;;;;;;;2.80;0.73;;;6.70;99.90;;;5.16;100.00;102250.81;5071567;28;20064;-80
2024/01/31 05:17:53;;;;;;;4.05;1.27;;;6.70;99.90;;;5.15;100.00;102264.78;5051953;28;20064;-82
2024/01/31 05:20:19;;;;;;;2.30;0.80;;;6.70;99.90;;;5.10;100.00;102264.78;5054596;28;20112;-80
2024/01/31 05:22:53;;;;;;;1.38;0.90;;;6.60;99.90;;;5.05;100.00;102263.88;5053575;28;20032;-81
2024/01/31 05:25:19;;;;;;;4.60;0.93;;;6.60;99.90;;;4.93;100.00;102277.78;5071148;28;20107;-82
2024/01/31 05:27:45;;;;;;;5.22;1.00;;;6.50;99.90;;;4.92;100.00;102285.63;5050644;28;20158;-82
2024/01/31 05:30:11;;;;;;;2.85;1.50;;;6.50;99.90;;;4.87;100.00;102285.63;5070501;28;20028;-81
2024/01/31 05:32:48;;;;;;;2.95;1.52;;;6.50;99.90;;;4.81;100.00;102292.56;5068140;28;20116;-82
2024/01/31 05:35:14;;;;;;;1.85;0.73;;;6.40;99.90;;;4.67;100.00;102301.22;5068972;28;20032;-81
2024/01/31 05:37:39;;;;;;;4.57;1.77;;;6.40;99.90;;;4.72;100.00;102296.88;5069843;28;20494;-83
2024/01/31 05:40:16;;;;;;;6.05;2.33;;;6.30;99.90;;;4.67;100.00;102308.19;5071690;28;20029;-83
2024/01/31 05:42:43;;;;;;;6.32;1.00;;;6.30;99.90;;;4.45;100.00;102318.53;5054484;28;20096;-83
2024/01/31 05:45:14;;;;;;;5.60;1.95;;;6.10;99.90;;;4.30;100.00;102321.09;5068489;28;20121;-83
2024/01/31 05:47:40;;;;;;;4.10;1.92;;;6.00;99.90;;;4.23;100.00;102332.34;5070573;28;20498;-83
2024/01/31 05:50:06;;;;;;;10.50;1.40;;;5.90;99.90;;;4.17;100.00;102327.97;5070075;28;20091;-83
2024/01/31 05:52:35;;;;;;;7.22;1.27;;;5.80;99.90;;;4.08;100.00;102339.22;5078444;28;20498;-83
2024/01/31 05:55:14;;;;;;;4.78;0.60;;;5.80;99.90;;;3.99;100.00;102330.47;5069719;28;20100;-83
2024/01/31 05:57:49;;;;;;;5.25;1.33;;;5.70;99.90;;;3.98;100.00;102333.94;5070966;28;20116;-83
2024/01/31 06:00:16;;;;;;;6.80;1.00;;;5.70;99.90;;;3.93;100.00;102336.53;5071204;28;20657;-83
2024/01/31 06:02:42;;;;;;;9.35;1.20;;;5.70;99.90;;;4.00;100.00;102332.22;5068181;28;20036;-82
2024/01/31 06:05:17;;;;;;;10.32;1.88;;;5.60;99.90;;;3.93;100.00;102336.53;5069701;28;20035;-83
2024/01/31 06:07:46;;;;;;;18.73;2.50;;;5.60;99.90;;;4.04;100.00;102346.97;5070226;28;20024;-85
2024/01/31 06:10:21;;;;;;;16.05;1.77;;;5.70;99.90;;;4.03;100.00;102342.66;5070738;28;20039;-83
2024/01/31 06:12:47;;;;;;;13.85;2.20;;;5.70;99.90;;;4.05;100.00;102357.44;5067144;28;20033;-82
2024/01/31 06:15:23;;;;;;;13.27;2.15;;;5.60;99.90;;;3.97;100.00;102358.25;5053180;28;20447;-83
2024/01/31 06:17:49;;;;;;;9.18;1.08;;;5.60;99.90;;;3.95;100.00;102366.03;5054497;28;20060;-83
2024/01/31 06:20:15;;;;;;;4.28;0.75;;;5.60;99.90;;;3.91;100.00;102361.69;5068012;28;20094;-83
2024/01/31 06:22:41;;;;;;;6.13;1.02;;;5.60;99.90;;;3.88;100.00;102375.56;5052942;28;20024;-82
2024/01/31 06:25:07;;;;;;;8.77;1.33;;;5.60;99.90;;;3.94;100.00;102360.84;5067326;28;20028;-83
2024/01/31 06:27:39;;;;;;;10.52;1.20;;;5.60;99.90;;;3.86;100.00;102377.28;5067101;28;20020;-83
2024/01/31 06:30:05;;;;;;;3.03;0.70;;;5.60;99.90;;;3.86;100.00;102372.06;5068888;28;20095;-83
2024/01/31 06:32:34;;;;;;;12.65;1.92;;;5.60;99.90;;;3.92;100.00;102380.81;5061641;28;20028;-83
2024/01/31 06:35:08;;;;;;;16.63;2.08;;;5.60;99.90;;;4.01;100.00;102389.53;5052760;28;20029;-83
2024/01/31 06:37:36;;;;;;;20.23;2.15;;;5.60;99.90;;;4.03;100.00;102389.56;5069163;28;20029;-84
2024/01/31 06:40:01;;;;;;;27.42;2.10;;;5.60;99.90;;;4.04;100.00;102391.28;5070195;28;20391;-84
2024/01/31 06:42:27;;;;;;;16.40;2.00;;;5.70;99.90;;;4.04;100.00;102393.91;5067498;28;20073;-82
2024/01/31 06:44:58;;;;;;;7.20;1.23;;;5.70;99.90;;;3.97;100.00;102398.19;5068013;28;20036;-84
2024/01/31 06:47:24;;;;;;;20.20;2.42;;;;;;;4.08;100.00;102401.78;5068258;28;20445;-83
2024/01/31 06:49:50;;;;;;;4.85;0.88;;;5.70;99.90;;;3.97;100.00;102392.13;5069314;28;20033;-84
2024/01/31 06:52:16;;;;;;;16.25;2.22;;;5.60;99.90;;;4.03;100.00;102410.41;5069476;28;20486;-81
2024/01/31 06:54:49;;;;;;;17.70;1.45;;;5.70;99.90;;;3.89;100.00;102419.00;5068669;28;20038;-83
2024/01/31 06:57:15;;;;;;;5.78;1.10;;;5.60;99.90;;;3.83;100.00;102421.56;5067775;28;20500;-84
2024/01/31 06:59:43;;;;;;;11.45;1.45;;;5.50;99.90;;;3.79;100.00;102430.22;5068315;28;20032;-83
2024/01/31 07:02:18;;;;;;;12.20;1.42;;;5.50;99.90;;;3.81;100.00;102431.09;5069510;28;20037;-83
2024/01/31 07:04:44;;;;;;;9.27;1.45;;;5.50;99.90;;;3.84;100.00;102433.72;5062110;28;20016;-83
2024/01/31 07:07:10;;;;;;;8.20;1.40;;;5.50;99.90;;;3.83;100.00;102437.19;5066683;28;20044;-82
2024/01/31 07:09:35;;;;;;;10.80;1.33;;;5.50;99.90;;;3.90;100.00;102436.38;5051701;28;20035;-83
2024/01/31 07:12:01;;;;;;;10.02;1.00;;;5.50;99.90;;;3.80;100.00;102446.72;5069626;28;20032;-83
2024/01/31 07:14:27;;;;;;;14.07;2.00;;;5.50;99.90;;;3.83;100.00;102444.16;5070570;28;20036;-82
2024/01/31 07:17:02;;;;;;;12.07;1.73;;;5.50;99.90;;;3.87;100.00;102448.53;5068802;28;20036;-83
2024/01/31 07:19:28;;;;;;;18.42;1.80;;;5.50;99.90;;;3.92;100.00;102462.47;5066177;28;20050;-82
2024/01/31 07:21:54;;;;;;;13.43;1.58;;;5.50;99.90;;;3.93;100.00;102460.72;5069770;28;20032;-83
2024/01/31 07:24:27;;;;;;;9.15;2.22;;;5.60;99.90;;;3.87;100.00;102472.84;5052037;28;20047;-82
2024/01/31 07:26:54;;;;;;;10.57;1.30;;;;;;;3.84;100.00;102478.03;5049939;28;20037;-82
2024/01/31 07:29:22;;;;;;;18.27;1.80;;;5.50;99.90;;;3.89;100.00;102475.47;5071924;28;20081;-82
2024/01/31 07:31:53;;;;;;;7.05;1.20;;;5.50;99.90;;;3.76;100.00;102478.81;5072458;28;20103;-82
2024/01/31 07:34:19;;;;;;;17.35;1.50;;;5.50;99.90;;;3.90;100.00;102490.25;5062966;28;20048;-83
2024/01/31 07:36:45;;;;;;;6.30;1.42;;;5.50;99.90;;;3.85;100.00;102499.75;5071616;28;20497;-83
2024/01/31 07:39:11;;;;;;;9.02;1.40;;;5.50;99.90;;;3.83;100.00;102491.91;5054405;28;20044;-83
2024/01/31 07:41:37;;;;;;;18.00;2.22;;;5.50;99.90;;;3.90;100.00;102506.75;5071802;28;20028;-82
2024/01/31 07:44:03;;;;;;;12.75;1.30;;;5.50;99.90;;;3.84;100.00;102514.50;5073376;28;20063;-83
2024/01/31 07:46:36;;;;;;;15.13;1.73;;;5.50;99.90;;;3.93;100.00;102502.44;5054558;28;20052;-83
2024/01/31 07:49:06;;;;;;;9.95;1.90;;;5.50;99.90;;;3.97;100.00;102514.63;5072424;28;20290;-83
2024/01/31 07:51:37;;;;;;;16.00;1.90;;;5.60;99.90;;;3.97;100.00;102510.28;5069594;28;20044;-83
2024/01/31 07:54:06;;;;;;;12.10;1.30;;;5.60;99.90;;;4.05;100.00;102512.97;5054570;28;20482;-82
2024/01/31 07:56:34;;;;;;;7.43;1.42;;;5.60;99.90;;;3.94;100.00;102499.84;5069007;28;20044;-83
2024/01/31 07:58:59;;;;;;;10.07;1.02;;;5.60;99.90;;;3.87;100.00;102498.91;5073108;28;20108;-83
2024/01/31 08:01:33;;;;;;;21.83;1.67;;;5.60;99.90;;;4.00;100.00;102517.28;5072375;28;20599;-83
2024/01/31 08:03:58;;;;;;;12.13;1.50;;;5.60;99.90;;;3.98;100.00;102501.63;5071703;28;20029;-82
2024/01/31 08:06:24;;;;;;;16.75;1.55;;;5.60;99.90;;;3.98;100.00;102506.84;5073363;28;20042;-83
2024/01/31 08:08:55;;;;;;;13.88;1.83;;;5.60;99.90;;;4.08;100.00;102505.16;5054983;28;20025;-82
2024/01/31 08:11:26;;;;;;;8.05;1.48;;;5.70;99.90;;;4.07;100.00;102500.81;5053898;28;20035;-83
2024/01/31 08:13:52;;;;;;;19.23;1.77;;;5.70;99.90;;;4.15;100.00;102498.28;5072137;28;20620;-82
2024/01/31 08:16:17;;;;;;;18.90;1.98;;;5.70;99.90;;;4.10;100.00;102500.84;5053898;28;20143;-83
2024/01/31 08:18:53;;;;;;;;;;;;;;;;;;;;;
2024/01/31 08:21:19;;;;;;;;;;;5.70;99.90;;;4.14;100.00;102492.19;5070495;28;20034;-83
2024/01/31 08:23:45;;;;;;;15.00;1.70;;;5.70;99.90;;;4.18;100.00;102488.75;5072139;28;19999;-83
2024/01/31 08:26:19;;;;;;;10.70;1.55;;;5.70;99.90;;;4.27;99.40;102509.66;5053067;28;20094;-83
2024/01/31 08:28:45;;;;;;;9.80;1.15;;;5.70;99.90;;;4.07;99.09;102513.88;5070337;28;20040;-83
2024/01/31 08:31:14;;;;;;;18.27;1.73;;;5.70;99.90;;;4.19;98.73;102521.81;5072292;28;20032;-83
2024/01/31 08:33:39;;;;;;;19.98;1.80;;;5.80;99.90;;;4.25;98.74;102523.56;5053264;28;20032;-82
2024/01/31 08:36:10;;;;;;;10.30;1.23;;;5.80;99.90;;;4.21;98.21;102530.50;5067680;28;20038;-82
2024/01/31 08:38:39;;;;;;;19.08;1.45;;;5.80;99.90;;;4.16;97.80;102531.31;5052566;28;20028;-83
2024/01/31 08:41:05;;;;;;;11.30;1.70;;;5.70;99.90;;;4.17;97.73;102535.66;5070277;28;20024;-84
2024/01/31 08:43:31;;;;;;;14.25;2.13;;;5.70;99.90;;;4.05;97.62;102537.31;5053765;28;20060;-82
2024/01/31 08:46:04;;;;;;;8.55;1.02;;;5.70;99.90;;;4.05;97.42;102526.88;5054371;28;20116;-83
2024/01/31 08:48:31;;;;;;;14.30;1.90;;;5.70;99.90;;;4.09;97.49;102533.00;5069017;28;20043;-82
2024/01/31 08:50:58;;;;;;;21.02;1.80;;;5.70;99.90;;;4.22;97.28;102534.84;5071592;28;20031;-83
2024/01/31 08:53:24;;;;;;;27.95;2.13;;;5.80;99.90;;;4.29;97.38;102533.16;5070512;28;20048;-83
2024/01/31 08:55:58;;;;;;;9.40;1.17;;;5.80;99.90;;;4.24;96.56;102546.16;5053557;28;20030;-84
2024/01/31 08:58:26;;;;;;;8.98;1.15;;;5.70;99.90;;;3.98;96.30;102548.53;5072929;28;20060;-83
2024/01/31 09:00:59;;;;;;;10.82;1.38;;;5.70;99.90;;;3.99;96.54;102555.47;5071637;28;20036;-83
2024/01/31 09:03:25;;;;;;;16.17;1.73;;;5.60;99.90;;;3.90;96.12;102550.19;5068585;28;20040;-84
2024/01/31 09:05:51;;;;;;;14.68;1.88;;;5.60;99.90;;;3.97;96.10;102557.19;5050557;28;20031;-83
2024/01/31 09:08:17;;;;;;;8.82;1.92;;;5.60;99.90;;;3.98;94.98;102555.50;5070604;28;20036;-82
2024/01/31 09:10:59;;;;;;;11.93;1.92;;;5.70;99.90;;;4.08;94.64;102554.69;5069436;28;20127;-83
2024/01/31 09:13:32;;;;;;;10.40;1.15;;;5.70;99.90;;;4.16;93.52;102553.03;5070391;28;20024;-83
2024/01/31 09:15:58;;;;;;;15.55;1.35;;;5.70;99.90;;;4.17;90.52;102557.41;5069686;28;20051;-83
2024/01/31 09:18:24;;;;;;;14.95;1.23;;;5.80;99.90;;;4.31;90.06;102567.97;5070468;28;20036;-83
2024/01/31 09:21:06;;;;;;;10.05;1.30;;;;;;;4.24;89.78;102566.16;5069984;28;20043;-83
2024/01/31 09:23:32;;;;;;;9.35;1.35;;;5.80;99.90;;;4.21;89.85;102567.00;5070182;28;20043;-83
2024/01/31 09:26:04;;;;;;;8.20;1.33;;;5.80;99.90;;;4.24;89.88;102560.94;5069904;28;20041;-82
2024/01/31 09:28:33;;;;;;;15.60;1.35;;;5.90;99.90;;;4.34;89.67;102559.28;5071268;28;20041;-82
2024/01/31 09:30:59;;;;;;;15.88;1.77;;;5.90;99.90;;;4.42;89.09;102565.44;5070254;28;20112;-80
2024/01/31 09:33:33;;;;;;;14.40;1.60;;;6.00;99.90;;;4.51;88.79;102565.50;5052519;28;20037;-82
2024/01/31 09:35:59;;;;;;;10.98;1.10;;;6.00;99.90;;;4.54;88.76;102570.78;5068769;28;20435;-81
2024/01/31 09:38:34;;;;;;;11.55;1.80;;;6.10;99.90;;;4.56;88.48;102571.66;5051962;28;20043;-81
2024/01/31 09:41:00;;;;;;;18.88;1.85;;;6.10;99.90;;;4.64;87.83;102572.56;5066029;28;20394;-81
2024/01/31 09:43:29;;;;;;;12.55;1.30;;;6.10;99.90;;;4.71;87.86;102590.03;5053720;28;20032;-81
2024/01/31 09:46:02;;;;;;;15.25;1.85;;;6.20;99.90;;;4.71;87.71;102592.66;5068194;28;20052;-81
2024/01/31 09:48:33;;;;;;;17.58;1.38;;;6.20;99.90;;;4.61;86.95;102601.25;5068809;28;20032;-81
2024/01/31 09:51:07;;;;;;;16.23;2.25;;;6.20;99.90;;;4.77;86.84;102601.38;5067764;28;20691;-81
2024/01/31 09:53:37;;;;;;;9.70;1.48;;;6.20;99.90;;;4.78;86.82;102604.00;5069657;28;20158;-81
2024/01/31 09:56:08;;;;;;;12.35;1.48;;;6.30;99.90;;;4.83;86.56;102601.41;5069545;28;20032;-79
2024/01/31 09:58:36;;;;;;;13.35;1.90;;;6.30;99.90;;;4.85;86.38;102597.09;5066182;28;20032;-79
2024/01/31 10:01:11;;;;;;;17.83;1.42;;;6.30;99.90;;;4.84;86.14;102613.63;5051346;28;20545;-79
2024/01/31 10:03:41;;;;;;;14.23;2.05;;;6.30;99.90;;;4.90;86.50;102605.81;5071086;28;20029;-81
2024/01/31 10:06:07;;;;;;;6.40;1.20;;;6.40;99.90;;;4.93;87.03;102604.09;5066669;28;20033;-81
2024/01/31 10:08:35;;;;;;;14.98;1.40;;;6.40;99.90;;;5.06;86.08;102605.06;5069506;28;20052;-81
2024/01/31 10:11:06;;;;;;;15.45;1.67;;;6.50;99.90;;;5.01;85.37;102606.78;5051187;28;20049;-80
2024/01/31 10:13:32;;;;;;;12.73;1.20;;;6.50;99.90;;;5.17;84.81;102604.25;5068609;28;20027;-80
2024/01/31 10:16:01;;;;;;;16.63;2.10;;;6.50;99.90;;;5.01;84.86;102598.06;5066366;28;20032;-80
2024/01/31 10:18:34;;;;;;;12.57;1.35;;;6.60;99.90;;;5.12;84.68;102580.75;5067028;28;20044;-81
2024/01/31 10:21:03;;;;;;;13.30;1.45;;;6.60;99.90;;;5.23;83.79;102584.28;5052331;28;20047;-80
2024/01/31 10:23:39;;;;;;;13.82;1.52;;;6.60;99.90;;;5.20;83.32;102580.75;5068193;28;20067;-79
2024/01/31 10:26:07;;;;;;;10.48;1.60;;;6.60;99.90;;;5.27;82.67;102579.91;5070002;28;20426;-80
2024/01/31 10:28:42;;;;;;;6.32;1.15;;;6.70;99.90;;;5.36;83.02;102580.00;5068487;28;20048;-80